Time;durP1;ratioP1;P1;durP2;ratioP2;P2;SDS_P1;SDS_P2;PMS_P1;PMS_P2;Temp;Humidity;BMP_temperature;BMP_pressure;BME280_temperature;BME280_humidity;BME280_pressure;Samples;Min_cycle;Max_cycle;Signal;HPM_P1;HPM_P2
2021/12/28 00:00:54;;;;;;;3.20;0.40;;;6.70;99.90;;;;;;4973193;28;20027;-85
2021/12/28 00:03:20;;;;;;;1.23;0.67;;;6.80;99.90;;;;;;4974969;28;20037;-85
2021/12/28 00:05:45;;;;;;;2.47;0.30;;;6.80;99.90;;;;;;4973703;28;20122;-86
2021/12/28 00:08:12;;;;;;;2.70;0.43;;;6.80;99.90;;;;;;4973348;28;20691;-85
2021/12/28 00:10:38;;;;;;;1.90;0.20;;;6.90;99.90;;;;;;4973081;28;20015;-86
2021/12/28 00:13:04;;;;;;;1.00;0.30;;;7.00;99.90;;;;;;4973330;28;20121;-86
2021/12/28 00:15:34;;;;;;;1.23;0.30;;;6.90;99.90;;;;;;4972364;28;20501;-85
2021/12/28 00:18:04;;;;;;;1.60;0.20;;;6.90;99.90;;;;;;4973195;28;20026;-86
2021/12/28 00:20:35;;;;;;;1.13;0.27;;;6.90;99.90;;;;;;4973007;28;20430;-85
2021/12/28 00:23:03;;;;;;;1.50;0.47;;;6.90;99.90;;;;;;4972420;28;20031;-85
2021/12/28 00:25:29;;;;;;;2.30;0.23;;;6.90;99.90;;;;;;4972591;28;20030;-86
2021/12/28 00:27:55;;;;;;;3.23;0.53;;;6.90;99.90;;;;;;4972552;28;20053;-86
2021/12/28 00:30:24;;;;;;;4.00;0.40;;;6.80;99.90;;;;;;5022776;23;20051;-89
2021/12/28 00:32:56;;;;;;;2.07;0.40;;;6.80;99.90;;;;;;5000180;28;20019;-90
2021/12/28 00:35:31;;;;;;;2.67;0.40;;;6.80;99.90;;;;;;4986991;28;20054;-89
2021/12/28 00:38:24;;;;;;;;;;;;;;;;;;;;;
2021/12/28 00:40:44;;;;;;;1.67;0.40;;;6.70;99.90;;;;;;5160951;23;20062;-89
2021/12/28 00:43:10;;;;;;;1.67;0.43;;;6.70;99.90;;;;;;4985025;28;20026;-89
2021/12/28 00:45:42;;;;;;;1.77;0.33;;;6.70;99.90;;;;;;4983778;28;20087;-89
2021/12/28 00:48:10;;;;;;;2.92;0.45;;;6.70;99.90;;;;;;4980128;28;20506;-90
2021/12/28 00:50:36;;;;;;;2.10;0.50;;;6.70;99.90;;;;;;4983738;28;20034;-90
2021/12/28 00:53:03;;;;;;;2.40;0.43;;;6.70;99.90;;;;;;4967334;28;20061;-89
2021/12/28 00:55:29;;;;;;;2.73;0.40;;;6.60;99.90;;;;;;4981729;28;20685;-91
2021/12/28 00:57:55;;;;;;;5.77;0.60;;;6.60;99.90;;;;;;4981828;28;20069;-89
2021/12/28 01:00:28;;;;;;;1.30;0.53;;;6.50;99.90;;;;;;4976090;28;20038;-90
2021/12/28 01:02:56;;;;;;;3.80;0.30;;;6.50;99.90;;;;;;4967584;28;20035;-89
2021/12/28 01:05:26;;;;;;;1.27;0.40;;;6.50;99.90;;;;;;4982943;28;20039;-89
2021/12/28 01:07:53;;;;;;;7.40;0.90;;;6.50;99.90;;;;;;4967729;28;20031;-89
2021/12/28 01:10:22;;;;;;;2.93;0.30;;;6.50;99.90;;;;;;4981906;28;20030;-89
2021/12/28 01:12:49;;;;;;;3.60;0.30;;;6.40;99.90;;;;;;4980651;28;20035;-90
2021/12/28 01:15:19;;;;;;;5.67;0.83;;;6.50;99.90;;;;;;4982758;28;20030;-89
2021/12/28 01:17:46;;;;;;;2.40;0.83;;;6.40;99.90;;;;;;4982857;28;20047;-89
2021/12/28 01:20:14;;;;;;;4.30;0.60;;;6.40;99.90;;;;;;4982025;28;20054;-90
2021/12/28 01:22:41;;;;;;;1.00;0.47;;;6.30;99.90;;;;;;4967326;28;20027;-90
2021/12/28 01:25:11;;;;;;;6.97;0.80;;;6.30;99.90;;;;;;4981220;28;20463;-90
2021/12/28 01:27:37;;;;;;;3.20;0.20;;;6.30;99.90;;;;;;4982025;28;20468;-90
2021/12/28 01:30:12;;;;;;;2.87;0.80;;;6.40;99.90;;;;;;4977180;28;20031;-90
2021/12/28 01:32:38;;;;;;;3.87;0.93;;;6.30;99.90;;;;;;4977791;28;20037;-90
2021/12/28 01:35:07;;;;;;;0.87;0.27;;;6.40;99.90;;;;;;4981886;28;20087;-90
2021/12/28 01:37:33;;;;;;;1.80;0.63;;;6.40;99.90;;;;;;4982996;28;20074;-90
2021/12/28 01:39:59;;;;;;;2.70;0.60;;;6.30;99.90;;;;;;4980907;28;20039;-90
2021/12/28 01:42:31;;;;;;;2.03;0.40;;;6.30;99.90;;;;;;4980625;28;20529;-90
2021/12/28 01:45:02;;;;;;;1.48;0.38;;;6.20;99.90;;;;;;4982524;28;20085;-90
2021/12/28 01:47:27;;;;;;;2.67;0.50;;;6.10;99.90;;;;;;4980303;28;20062;-91
2021/12/28 01:49:56;;;;;;;1.43;0.43;;;6.20;99.90;;;;;;4980812;28;20515;-90
2021/12/28 01:52:22;;;;;;;3.07;0.50;;;6.10;99.90;;;;;;4978932;28;20027;-90
2021/12/28 01:54:51;;;;;;;2.67;0.47;;;6.10;99.90;;;;;;4964868;28;20049;-89
2021/12/28 01:57:19;;;;;;;2.60;0.53;;;6.00;99.90;;;;;;4965763;28;20034;-90
2021/12/28 01:59:51;;;;;;;2.00;0.43;;;6.00;99.90;;;;;;4960220;28;20029;-90
2021/12/28 02:02:17;;;;;;;;;;;6.00;99.90;;;;;;4981894;28;20038;-89
2021/12/28 02:04:42;;;;;;;4.60;0.60;;;6.00;99.90;;;;;;4983944;28;19906;-90
2021/12/28 02:07:08;;;;;;;2.63;0.30;;;5.90;99.90;;;;;;4981991;28;20374;-90
2021/12/28 02:09:34;;;;;;;5.03;0.63;;;5.90;99.90;;;;;;4980970;28;20042;-90
2021/12/28 02:12:00;;;;;;;2.63;0.40;;;5.80;99.90;;;;;;4982914;28;20380;-90
2021/12/28 02:14:26;;;;;;;3.07;0.53;;;5.90;99.90;;;;;;4978164;28;20038;-90
2021/12/28 02:16:51;;;;;;;4.53;0.80;;;5.90;99.90;;;;;;4965239;28;20034;-90
2021/12/28 02:19:20;;;;;;;1.27;0.30;;;6.00;99.90;;;;;;4980200;28;20030;-90
2021/12/28 02:21:46;;;;;;;1.23;0.30;;;6.00;99.90;;;;;;4979842;28;20051;-90
2021/12/28 02:24:12;;;;;;;2.03;0.50;;;6.00;99.90;;;;;;4981518;28;20035;-90
2021/12/28 02:26:38;;;;;;;1.10;0.30;;;6.00;99.90;;;;;;4978446;28;20091;-89
2021/12/28 02:29:05;;;;;;;0.80;0.37;;;5.90;99.90;;;;;;4980109;28;20050;-90
2021/12/28 02:31:31;;;;;;;1.93;0.40;;;6.00;99.90;;;;;;4984685;28;20034;-90
2021/12/28 02:34:02;;;;;;;5.23;0.60;;;5.80;99.90;;;;;;4968295;28;20023;-90
2021/12/28 02:36:27;;;;;;;5.80;0.50;;;5.80;99.90;;;;;;4967683;28;20019;-90
2021/12/28 02:38:53;;;;;;;2.30;0.43;;;5.80;99.90;;;;;;4982898;28;20033;-91
2021/12/28 02:41:22;;;;;;;2.07;0.47;;;5.80;99.90;;;;;;4966074;28;20026;-90
2021/12/28 02:43:49;;;;;;;3.77;0.80;;;5.80;99.90;;;;;;4976155;28;20116;-90
2021/12/28 02:46:16;;;;;;;2.60;0.40;;;5.80;99.90;;;;;;4978888;28;20054;-90
2021/12/28 02:48:43;;;;;;;3.10;0.50;;;5.80;99.90;;;;;;4967239;28;20197;-88
2021/12/28 02:51:17;;;;;;;2.60;1.23;;;5.80;99.90;;;;;;4966185;28;20170;-88
2021/12/28 02:53:54;;;;;;;6.43;1.13;;;5.90;99.90;;;;;;4981380;28;20047;-88
2021/12/28 02:56:30;;;;;;;3.43;0.67;;;5.90;99.90;;;;;;4967536;28;20022;-89
2021/12/28 02:58:55;;;;;;;3.57;0.50;;;5.90;99.90;;;;;;4978750;28;20073;-88
2021/12/28 03:01:27;;;;;;;5.43;0.67;;;6.00;99.90;;;;;;4980163;28;20694;-89
2021/12/28 03:04:03;;;;;;;2.17;0.70;;;5.90;99.90;;;;;;4987788;28;20034;-89
2021/12/28 03:06:32;;;;;;;4.03;0.50;;;6.00;99.90;;;;;;4980996;28;20119;-90
2021/12/28 03:09:00;;;;;;;2.67;0.40;;;5.90;99.90;;;;;;4969271;28;20033;-88
2021/12/28 03:11:31;;;;;;;6.50;0.80;;;6.00;99.90;;;;;;4982885;28;20023;-89
2021/12/28 03:14:02;;;;;;;1.80;0.60;;;6.10;99.90;;;;;;4987878;28;20054;-88
2021/12/28 03:16:30;;;;;;;2.27;0.40;;;6.10;99.90;;;;;;4987655;28;20019;-89
2021/12/28 03:18:59;;;;;;;3.43;0.80;;;6.10;99.90;;;;;;4984398;28;20023;-89
2021/12/28 03:21:27;;;;;;;2.40;0.47;;;6.20;99.90;;;;;;4988486;28;20019;-88
2021/12/28 03:23:54;;;;;;;3.77;0.40;;;6.20;99.90;;;;;;4980256;28;21123;-88
2021/12/28 03:26:21;;;;;;;1.27;0.40;;;6.10;99.90;;;;;;4965563;28;20674;-89
2021/12/28 03:28:50;;;;;;;3.97;0.50;;;6.10;99.90;;;;;;4979914;28;20029;-89
2021/12/28 03:31:21;;;;;;;4.30;0.60;;;6.20;99.90;;;;;;4986879;28;20026;-89
2021/12/28 03:33:49;;;;;;;4.20;0.97;;;6.10;99.90;;;;;;4984105;28;20030;-89
2021/12/28 03:36:16;;;;;;;4.43;0.70;;;6.10;99.90;;;;;;4983336;28;20099;-89
2021/12/28 03:38:43;;;;;;;2.10;0.40;;;6.10;99.90;;;;;;4977091;28;20027;-89
2021/12/28 03:41:20;;;;;;;2.87;0.50;;;6.00;99.90;;;;;;4968999;28;20030;-89
2021/12/28 03:44:05;;;;;;;1.87;0.40;;;6.10;99.90;;;;;;4970910;28;20029;-88
2021/12/28 03:46:31;;;;;;;4.93;0.60;;;6.10;99.90;;;;;;4969572;28;20038;-89
2021/12/28 03:49:00;;;;;;;5.83;1.40;;;6.10;99.90;;;;;;4968284;28;20023;-89
2021/12/28 03:51:28;;;;;;;7.53;0.63;;;6.10;99.90;;;;;;4980897;28;20033;-89
2021/12/28 03:53:59;;;;;;;4.00;0.60;;;6.20;99.90;;;;;;4985569;28;20088;-88
2021/12/28 03:56:28;;;;;;;1.33;0.40;;;6.10;99.90;;;;;;4963247;28;20027;-89
2021/12/28 03:58:56;;;;;;;2.03;0.57;;;6.10;99.90;;;;;;4967438;28;20019;-88
2021/12/28 04:01:29;;;;;;;3.37;0.43;;;6.10;99.90;;;;;;4984832;28;20019;-89
2021/12/28 04:03:59;;;;;;;2.20;0.83;;;6.10;99.90;;;;;;4964844;28;20109;-89
2021/12/28 04:06:34;;;;;;;2.13;0.50;;;6.20;99.90;;;;;;4981890;28;20054;-89
2021/12/28 04:09:03;;;;;;;2.23;0.50;;;6.20;99.90;;;;;;4982092;28;20031;-88
2021/12/28 04:11:34;;;;;;;2.83;0.57;;;6.20;99.90;;;;;;4979212;28;20026;-88
2021/12/28 04:14:04;;;;;;;2.73;0.50;;;6.20;99.90;;;;;;4956831;28;20023;-89
2021/12/28 04:16:36;;;;;;;6.23;0.73;;;6.20;99.90;;;;;;4980720;28;20014;-89
2021/12/28 04:19:08;;;;;;;2.75;1.02;;;6.20;99.90;;;;;;4980792;28;20022;-89
2021/12/28 04:21:38;;;;;;;3.45;0.52;;;6.20;99.90;;;;;;4981983;28;20037;-89
2021/12/28 04:24:14;;;;;;;1.73;0.40;;;6.30;99.90;;;;;;4966849;28;20031;-89
2021/12/28 04:26:40;;;;;;;1.60;0.47;;;6.20;99.90;;;;;;4979230;28;20174;-89
2021/12/28 04:29:06;;;;;;;1.97;0.30;;;6.20;99.90;;;;;;4974093;28;20035;-89
2021/12/28 04:31:34;;;;;;;3.63;0.80;;;6.20;99.90;;;;;;4980597;28;20102;-89
2021/12/28 04:34:01;;;;;;;4.93;1.30;;;6.20;99.90;;;;;;4975599;28;20035;-89
2021/12/28 04:36:29;;;;;;;2.53;0.23;;;6.20;99.90;;;;;;4977513;28;20031;-89
2021/12/28 04:39:02;;;;;;;1.87;0.30;;;6.30;99.90;;;;;;4980975;28;20522;-89
2021/12/28 04:41:28;;;;;;;3.30;0.50;;;6.30;99.90;;;;;;4980139;28;20051;-89
2021/12/28 04:43:54;;;;;;;2.87;0.40;;;6.30;99.90;;;;;;4984614;28;20035;-89
2021/12/28 04:46:20;;;;;;;3.77;0.67;;;6.30;99.90;;;;;;4983259;28;20118;-88
2021/12/28 04:48:48;;;;;;;4.50;0.47;;;6.30;99.90;;;;;;4967623;28;20027;-88
2021/12/28 04:51:17;;;;;;;2.50;0.70;;;6.30;99.90;;;;;;4979118;28;20030;-89
2021/12/28 04:53:43;;;;;;;3.80;0.50;;;6.30;99.90;;;;;;4981058;28;20031;-89
2021/12/28 04:56:09;;;;;;;2.77;0.40;;;6.30;99.90;;;;;;4981924;28;20102;-89
2021/12/28 04:58:34;;;;;;;5.67;0.57;;;6.40;99.90;;;;;;4981717;28;20844;-89
2021/12/28 05:01:03;;;;;;;4.73;0.60;;;6.30;99.90;;;;;;4963018;28;20015;-89
2021/12/28 05:03:29;;;;;;;2.43;0.57;;;6.40;99.90;;;;;;4983746;28;20030;-89
2021/12/28 05:05:54;;;;;;;4.40;0.40;;;6.40;99.90;;;;;;4965124;28;20022;-88
2021/12/28 05:08:21;;;;;;;1.83;0.40;;;6.40;99.90;;;;;;4983635;28;20027;-89
2021/12/28 05:10:52;;;;;;;2.60;0.73;;;6.30;99.90;;;;;;4981848;28;20503;-89
2021/12/28 05:13:22;;;;;;;1.93;0.50;;;6.30;99.90;;;;;;4985986;28;20034;-87
2021/12/28 05:18:42;;;;;;;3.30;0.50;;;6.30;99.90;;;;;;4962391;28;20045;-88
2021/12/28 05:21:18;;;;;;;3.07;0.30;;;6.30;99.90;;;;;;4972089;28;20019;-90
2021/12/28 05:23:44;;;;;;;2.80;0.50;;;6.30;99.90;;;;;;4979832;28;20031;-90
2021/12/28 05:26:10;;;;;;;1.33;0.43;;;6.20;99.90;;;;;;4986392;28;20035;-89
2021/12/28 05:28:36;;;;;;;1.80;0.40;;;6.20;99.90;;;;;;4981432;28;20091;-89
2021/12/28 05:31:01;;;;;;;2.17;0.73;;;6.20;99.90;;;;;;4979931;28;20069;-89
2021/12/28 05:33:27;;;;;;;3.20;0.37;;;6.30;99.90;;;;;;4976477;28;20076;-89
2021/12/28 05:35:53;;;;;;;2.60;0.47;;;6.30;99.90;;;;;;4964913;28;20063;-88
2021/12/28 05:38:25;;;;;;;3.13;0.60;;;6.20;99.90;;;;;;4979496;28;20085;-88
2021/12/28 05:40:54;;;;;;;4.25;0.50;;;6.20;99.90;;;;;;4977130;28;20039;-89
2021/12/28 05:43:23;;;;;;;5.87;0.60;;;6.30;99.90;;;;;;4963502;28;20035;-89
2021/12/28 05:45:54;;;;;;;2.10;0.40;;;6.30;99.90;;;;;;4981705;28;20026;-89
2021/12/28 05:48:30;;;;;;;1.17;0.40;;;6.30;99.90;;;;;;4980564;28;20026;-89
2021/12/28 05:50:59;;;;;;;2.13;0.70;;;6.20;99.90;;;;;;4971894;28;20019;-89
2021/12/28 05:53:27;;;;;;;1.83;0.50;;;6.30;99.90;;;;;;4984017;28;20411;-89
2021/12/28 05:56:04;;;;;;;2.20;0.47;;;6.30;99.90;;;;;;4983458;28;20098;-88
2021/12/28 05:58:29;;;;;;;0.77;0.40;;;6.30;99.90;;;;;;4976547;28;20467;-89
2021/12/28 06:00:56;;;;;;;2.27;0.53;;;6.30;99.90;;;;;;4976899;28;20050;-89
2021/12/28 06:03:21;;;;;;;2.17;0.37;;;6.30;99.90;;;;;;4983604;28;20116;-89
2021/12/28 06:05:47;;;;;;;0.80;0.30;;;6.30;99.90;;;;;;4970847;28;20030;-89
2021/12/28 06:08:13;;;;;;;2.50;0.50;;;6.30;99.90;;;;;;4987279;28;20038;-88
2021/12/28 06:10:42;;;;;;;4.03;0.57;;;6.30;99.90;;;;;;4980174;28;20039;-89
2021/12/28 06:13:08;;;;;;;1.30;0.47;;;6.40;99.90;;;;;;4984580;28;20043;-90
2021/12/28 06:15:36;;;;;;;1.27;0.60;;;6.30;99.90;;;;;;4964666;28;20054;-90
2021/12/28 06:18:02;;;;;;;1.47;0.47;;;6.30;99.90;;;;;;4980819;28;20035;-89
2021/12/28 06:20:31;;;;;;;4.03;0.60;;;6.30;99.90;;;;;;4985967;28;20034;-89
2021/12/28 06:23:05;;;;;;;2.97;0.50;;;6.40;99.90;;;;;;4988691;28;20050;-89
2021/12/28 06:25:33;;;;;;;2.27;0.90;;;6.50;99.90;;;;;;4969551;28;20031;-90
2021/12/28 06:27:59;;;;;;;1.63;0.30;;;6.50;99.90;;;;;;4983048;28;20534;-90
2021/12/28 06:30:25;;;;;;;1.23;0.50;;;6.60;99.90;;;;;;4985384;28;20625;-87
2021/12/28 06:33:40;;;;;;;2.27;0.50;;;6.60;99.90;;;;;;4987389;28;20027;-88
2021/12/28 06:36:06;;;;;;;1.13;0.33;;;6.60;99.90;;;;;;4970044;28;20030;-88
2021/12/28 06:38:32;;;;;;;2.07;0.40;;;6.50;99.90;;;;;;4987474;28;20550;-88
2021/12/28 06:40:57;;;;;;;2.77;0.40;;;6.60;99.90;;;;;;5042058;23;20049;-84
2021/12/28 06:43:23;;;;;;;0.53;0.20;;;6.50;99.90;;;;;;4992063;28;20061;-84
2021/12/28 06:45:50;;;;;;;1.83;0.40;;;6.50;99.90;;;;;;5004893;28;20117;-84
2021/12/28 06:48:16;;;;;;;1.13;0.30;;;6.60;99.90;;;;;;5007716;28;20109;-83
2021/12/28 06:50:42;;;;;;;1.43;0.43;;;6.60;99.90;;;;;;4984027;28;20739;-84
2021/12/28 06:53:07;;;;;;;0.83;0.40;;;6.70;99.90;;;;;;4968940;28;20087;-84
2021/12/28 06:55:33;;;;;;;1.40;0.20;;;6.70;99.90;;;;;;4972084;28;20023;-85
2021/12/28 06:57:59;;;;;;;0.77;0.20;;;6.80;99.90;;;;;;4985406;28;20129;-84
2021/12/28 07:00:26;;;;;;;0.83;0.10;;;6.80;99.90;;;;;;4971808;28;20092;-83
2021/12/28 07:02:51;;;;;;;0.90;0.20;;;6.80;99.90;;;;;;4966454;28;20011;-84
2021/12/28 07:05:17;;;;;;;0.43;0.10;;;6.90;99.90;;;;;;4974177;28;20113;-84
2021/12/28 07:07:43;;;;;;;0.50;0.10;;;6.90;99.90;;;;;;4988881;28;20035;-84
2021/12/28 07:10:09;;;;;;;0.77;0.20;;;7.00;99.90;;;;;;4972771;28;20082;-84
2021/12/28 07:12:35;;;;;;;1.00;0.23;;;7.00;99.90;;;;;;4981634;28;20466;-84
2021/12/28 07:15:01;;;;;;;0.30;0.10;;;7.00;99.90;;;;;;4973191;28;20208;-86
2021/12/28 07:17:27;;;;;;;1.00;0.20;;;7.10;99.90;;;;;;4966924;28;20162;-84
2021/12/28 07:19:53;;;;;;;2.23;0.10;;;7.10;99.90;;;;;;4975231;28;20027;-84
2021/12/28 07:22:19;;;;;;;0.37;0.10;;;7.00;99.90;;;;;;4973421;28;20027;-84
2021/12/28 07:24:45;;;;;;;1.13;0.20;;;7.10;99.90;;;;;;4973795;28;20593;-84
2021/12/28 07:27:11;;;;;;;0.43;0.10;;;7.10;99.90;;;;;;4976043;28;20023;-85
2021/12/28 07:29:37;;;;;;;0.33;0.10;;;7.10;99.90;;;;;;4990466;28;20027;-84
2021/12/28 07:32:06;;;;;;;2.70;0.50;;;7.10;99.90;;;;;;4975663;28;20534;-84
2021/12/28 07:34:33;;;;;;;0.67;0.13;;;7.20;99.90;;;;;;4981992;28;20026;-84
2021/12/28 07:36:58;;;;;;;1.47;0.20;;;7.20;99.90;;;;;;4990229;28;20015;-84
2021/12/28 07:39:24;;;;;;;0.10;0.03;;;7.30;99.90;;;;;;4974921;28;20035;-83
2021/12/28 07:41:50;;;;;;;0.00;0.00;;;7.30;99.90;;;;;;4989966;28;20034;-85
2021/12/28 07:44:15;;;;;;;0.23;0.10;;;7.20;99.90;;;;;;4991056;28;20079;-84
2021/12/28 07:46:41;;;;;;;0.40;0.10;;;7.30;99.90;;;;;;4991012;28;20122;-84
2021/12/28 07:49:07;;;;;;;0.20;0.10;;;7.50;99.90;;;;;;4997236;28;20088;-83
2021/12/28 07:51:32;;;;;;;0.20;0.10;;;7.40;99.90;;;;;;4987132;28;20099;-83
2021/12/28 07:53:58;;;;;;;1.50;0.00;;;7.40;99.90;;;;;;4984785;28;20054;-85
2021/12/28 07:56:24;;;;;;;0.00;0.00;;;7.40;99.90;;;;;;4985265;28;20034;-83
2021/12/28 07:58:49;;;;;;;0.20;0.10;;;7.50;99.90;;;;;;4977674;28;20034;-84
2021/12/28 08:01:15;;;;;;;0.30;0.00;;;7.60;99.90;;;;;;4990051;28;20023;-84
2021/12/28 08:03:41;;;;;;;0.27;0.10;;;7.70;99.90;;;;;;4972996;28;20046;-86
2021/12/28 08:06:06;;;;;;;0.40;0.10;;;7.70;99.90;;;;;;4975651;28;20037;-86
2021/12/28 08:08:32;;;;;;;0.20;0.10;;;7.80;99.90;;;;;;4988041;28;20038;-84
2021/12/28 08:10:58;;;;;;;0.40;0.10;;;7.70;99.90;;;;;;4990350;28;20057;-85
2021/12/28 08:13:24;;;;;;;0.03;0.00;;;7.70;99.90;;;;;;4972325;28;20035;-85
2021/12/28 08:15:50;;;;;;;0.13;0.00;;;7.70;99.90;;;;;;4970328;28;20554;-85
2021/12/28 08:18:15;;;;;;;0.20;0.10;;;7.70;99.90;;;;;;4989063;28;20031;-86
2021/12/28 08:20:41;;;;;;;0.20;0.03;;;7.80;99.90;;;;;;4971136;28;20082;-84
2021/12/28 08:23:10;;;;;;;0.13;0.00;;;7.70;99.90;;;;;;4973270;28;20030;-85
2021/12/28 08:25:39;;;;;;;0.07;0.00;;;7.80;99.90;;;;;;4965984;28;20042;-85
2021/12/28 08:28:06;;;;;;;0.00;0.00;;;7.80;99.90;;;;;;4970226;28;20744;-84
2021/12/28 08:30:35;;;;;;;0.10;0.00;;;7.80;99.90;;;;;;4971138;28;20102;-84
2021/12/28 08:33:02;;;;;;;0.20;0.10;;;7.90;99.90;;;;;;4969290;28;20031;-85
2021/12/28 08:35:28;;;;;;;0.40;0.10;;;7.90;99.90;;;;;;4968792;28;20158;-85
2021/12/28 08:37:54;;;;;;;0.00;0.00;;;7.90;99.90;;;;;;4988839;28;20511;-85
2021/12/28 08:40:20;;;;;;;0.20;0.00;;;8.00;99.90;;;;;;4973358;28;20077;-84
2021/12/28 08:42:46;;;;;;;0.03;0.00;;;8.00;99.90;;;;;;4973228;28;20054;-86
2021/12/28 08:45:12;;;;;;;1.30;0.00;;;8.00;99.90;;;;;;4988329;28;20030;-84
2021/12/28 08:47:38;;;;;;;0.03;0.00;;;8.00;99.90;;;;;;4973637;28;20027;-84
2021/12/28 08:50:08;;;;;;;2.90;0.10;;;8.10;99.90;;;;;;4971209;28;20453;-84
2021/12/28 08:52:34;;;;;;;0.27;0.10;;;8.10;99.90;;;;;;4988353;28;20039;-85
2021/12/28 08:55:04;;;;;;;0.10;0.00;;;8.20;99.90;;;;;;4985332;28;20097;-86
2021/12/28 08:57:30;;;;;;;0.00;0.00;;;8.20;99.90;;;;;;4985641;28;20050;-86
2021/12/28 08:59:55;;;;;;;0.00;0.00;;;8.20;99.90;;;;;;4971765;28;20100;-86
2021/12/28 09:02:21;;;;;;;0.20;0.00;;;8.20;99.90;;;;;;4972243;28;20383;-84
2021/12/28 09:04:47;;;;;;;0.67;0.10;;;8.20;99.90;;;;;;4981640;28;20058;-84
2021/12/28 09:07:17;;;;;;;0.00;0.00;;;8.30;99.90;;;;;;4987006;28;20386;-85
2021/12/28 09:09:44;;;;;;;0.50;0.00;;;8.40;99.90;;;;;;4969804;28;20046;-85
2021/12/28 09:12:11;;;;;;;0.10;0.00;;;8.50;99.90;;;;;;4970892;28;20026;-85
2021/12/28 09:14:36;;;;;;;0.30;0.00;;;8.40;99.90;;;;;;4971059;28;20153;-85
2021/12/28 09:17:03;;;;;;;0.57;0.10;;;8.50;99.90;;;;;;4970865;28;20566;-85
2021/12/28 09:19:30;;;;;;;0.27;0.00;;;8.40;99.90;;;;;;4969770;28;20030;-85
2021/12/28 09:21:56;;;;;;;0.90;0.13;;;8.50;99.90;;;;;;4964380;28;20047;-85
2021/12/28 09:24:21;;;;;;;0.20;0.10;;;8.50;99.90;;;;;;4984061;28;20030;-86
2021/12/28 09:26:47;;;;;;;0.93;0.27;;;8.50;99.90;;;;;;4967792;28;20038;-85
2021/12/28 09:29:13;;;;;;;0.20;0.10;;;8.60;99.90;;;;;;4985637;28;20538;-85
2021/12/28 09:31:39;;;;;;;0.63;0.10;;;8.60;99.90;;;;;;4985639;28;20054;-86
2021/12/28 09:34:04;;;;;;;0.47;0.10;;;8.70;99.90;;;;;;4983488;28;20494;-86
2021/12/28 09:36:30;;;;;;;0.00;0.00;;;8.80;99.90;;;;;;4967110;28;20406;-85
2021/12/28 09:38:56;;;;;;;0.30;0.10;;;8.90;99.90;;;;;;4968669;28;20442;-85
2021/12/28 09:41:21;;;;;;;0.10;0.00;;;9.20;99.90;;;;;;4966706;28;20039;-85
2021/12/28 09:43:47;;;;;;;0.07;0.00;;;9.10;99.90;;;;;;4982195;28;20045;-86
2021/12/28 09:46:13;;;;;;;0.60;0.10;;;9.10;99.90;;;;;;4984122;28;20114;-86
2021/12/28 09:48:39;;;;;;;0.40;0.20;;;9.10;99.90;;;;;;4968806;28;20031;-85
2021/12/28 09:51:08;;;;;;;0.00;0.00;;;9.00;99.90;;;;;;4983794;28;20547;-86
2021/12/28 09:53:35;;;;;;;0.40;0.07;;;8.90;99.90;;;;;;4979255;28;20081;-85
2021/12/28 09:56:02;;;;;;;1.13;0.00;;;8.90;99.90;;;;;;4968026;28;20037;-85
2021/12/28 09:58:28;;;;;;;0.40;0.10;;;9.00;99.90;;;;;;4971042;28;20026;-85
2021/12/28 10:00:54;;;;;;;0.47;0.10;;;9.00;99.90;;;;;;4988594;28;20030;-86
2021/12/28 10:03:22;;;;;;;0.17;0.00;;;9.00;99.90;;;;;;4987309;28;20030;-86
2021/12/28 10:05:48;;;;;;;0.40;0.37;;;9.10;99.90;;;;;;4989862;28;20030;-86
2021/12/28 10:08:15;;;;;;;0.00;0.00;;;9.10;99.90;;;;;;4990054;28;20082;-85
2021/12/28 10:10:44;;;;;;;0.07;0.00;;;9.10;99.90;;;;;;4971929;28;20090;-85
2021/12/28 10:13:18;;;;;;;0.10;0.00;;;9.20;99.90;;;;;;4987958;28;20035;-86
2021/12/28 10:15:46;;;;;;;0.57;0.10;;;9.30;99.90;;;;;;4967269;28;20118;-86
2021/12/28 10:18:12;;;;;;;0.87;0.10;;;9.30;99.90;;;;;;4974135;28;20109;-86
2021/12/28 10:20:59;;;;;;;0.10;0.00;;;9.40;99.90;;;;;;4970588;28;20038;-86
2021/12/28 10:23:28;;;;;;;0.03;0.00;;;9.40;99.90;;;;;;4985677;28;20610;-86
2021/12/28 10:26:00;;;;;;;0.00;0.00;;;9.40;99.90;;;;;;4974623;28;20027;-86
2021/12/28 10:28:32;;;;;;;0.10;0.00;;;9.50;99.90;;;;;;4988508;28;20034;-87
2021/12/28 10:31:01;;;;;;;;;;;9.40;99.90;;;;;;4975509;28;20555;-86
2021/12/28 10:33:31;;;;;;;0.30;0.10;;;9.30;99.90;;;;;;4972725;28;19918;-86
2021/12/28 10:36:02;;;;;;;0.10;0.10;;;9.40;99.90;;;;;;4973885;28;20019;-86
2021/12/28 10:38:39;;;;;;;0.10;0.10;;;9.30;99.90;;;;;;4974360;28;20023;-86
2021/12/28 10:41:11;;;;;;;0.20;0.00;;;9.30;99.90;;;;;;4967886;28;20031;-87
2021/12/28 10:43:39;;;;;;;;;;;9.40;99.90;;;;;;4969272;28;20034;-86
2021/12/28 10:46:15;;;;;;;0.20;0.10;;;9.50;99.90;;;;;;4974194;28;19937;-86
2021/12/28 10:48:49;;;;;;;0.43;0.10;;;9.60;99.90;;;;;;4967785;28;20023;-87
2021/12/28 10:51:43;;;;;;;0.20;0.03;;;9.70;99.90;;;;;;4973850;28;20038;-86
2021/12/28 10:54:13;;;;;;;0.30;0.00;;;9.70;99.90;;;;;;4969639;28;20039;-86
2021/12/28 10:56:53;;;;;;;0.20;0.10;;;9.80;99.90;;;;;;4990120;28;20023;-86
2021/12/28 10:59:31;;;;;;;0.23;0.10;;;9.70;99.90;;;;;;4976685;28;20100;-85
2021/12/28 11:01:58;;;;;;;0.40;0.10;;;9.80;99.90;;;;;;4972799;28;20479;-86
2021/12/28 11:04:32;;;;;;;0.10;0.00;;;9.80;99.90;;;;;;4958141;28;20499;-86
2021/12/28 11:06:57;;;;;;;0.43;0.10;;;9.90;99.90;;;;;;4974922;28;20037;-86
2021/12/28 11:09:45;;;;;;;0.10;0.10;;;10.00;99.90;;;;;;4973801;28;20035;-86
2021/12/28 11:12:14;;;;;;;0.00;0.00;;;10.10;99.90;;;;;;4974763;28;20121;-86
2021/12/28 11:15:11;;;;;;;0.10;0.00;;;10.00;99.90;;;;;;4975899;28;20023;-86
2021/12/28 11:17:47;;;;;;;0.00;0.00;;;10.00;99.90;;;;;;4972997;28;20513;-87
2021/12/28 11:20:27;;;;;;;;;;;;;;;;;;;;;
2021/12/28 11:23:37;;;;;;;0.23;0.07;;;9.90;99.90;;;;;;4969704;28;20027;-85
2021/12/28 11:26:13;;;;;;;1.87;0.20;;;9.90;99.90;;;;;;4970149;28;20058;-87
2021/12/28 11:28:42;;;;;;;0.43;0.10;;;9.90;99.90;;;;;;4973149;28;21413;-86
2021/12/28 11:32:04;;;;;;;;;;;;;;;;;;;;;
2021/12/28 11:34:39;;;;;;;0.37;0.20;;;9.90;99.90;;;;;;4968535;28;20569;-86
2021/12/28 11:37:17;;;;;;;0.30;0.10;;;10.00;99.90;;;;;;4975095;28;20023;-87
2021/12/28 11:39:59;;;;;;;0.60;0.10;;;10.00;99.90;;;;;;4990170;28;20387;-86
2021/12/28 11:42:25;;;;;;;0.73;0.17;;;10.00;99.90;;;;;;4990134;28;20085;-86
2021/12/28 11:44:52;;;;;;;0.63;0.20;;;10.10;99.90;;;;;;4985888;28;20019;-86
2021/12/28 11:47:22;;;;;;;0.10;0.10;;;10.00;99.90;;;;;;4987816;28;20027;-86
2021/12/28 11:49:50;;;;;;;0.70;0.17;;;9.90;99.90;;;;;;4986435;28;20023;-85
2021/12/28 11:52:26;;;;;;;1.47;0.20;;;10.00;99.90;;;;;;4973274;28;20398;-86
2021/12/28 11:55:20;;;;;;;0.27;0.00;;;10.10;99.90;;;;;;4990056;28;20073;-86
2021/12/28 12:02:03;;;;;;;0.10;0.00;;;10.20;99.90;;;;;;4919518;28;20031;-86
2021/12/28 12:04:37;;;;;;;0.20;0.03;;;10.20;99.90;;;;;;4990229;28;20508;-86
2021/12/28 12:07:17;;;;;;;0.13;0.10;;;10.20;99.90;;;;;;4967747;28;20027;-86
2021/12/28 12:13:05;;;;;;;0.00;0.00;;;10.10;99.90;;;;;;4981183;28;20118;-86
2021/12/28 12:16:01;;;;;;;0.40;0.10;;;10.10;99.90;;;;;;4989121;28;20023;-86
2021/12/28 12:19:03;;;;;;;1.07;0.30;;;10.00;99.90;;;;;;4971195;28;20027;-87
2021/12/28 12:21:32;;;;;;;0.00;0.00;;;10.00;99.90;;;;;;4972669;28;20027;-86
2021/12/28 12:23:58;;;;;;;0.80;0.10;;;10.10;99.90;;;;;;4972342;28;20463;-85
2021/12/28 12:26:34;;;;;;;1.30;0.20;;;10.00;99.90;;;;;;4986991;28;20023;-86
2021/12/28 12:29:17;;;;;;;0.60;0.13;;;9.90;99.90;;;;;;4961002;28;20031;-86
2021/12/28 12:31:45;;;;;;;0.60;0.10;;;9.90;99.90;;;;;;4974270;28;20031;-85
2021/12/28 12:34:38;;;;;;;0.43;0.10;;;9.90;99.90;;;;;;4974915;28;20034;-86
2021/12/28 12:37:21;;;;;;;0.30;0.10;;;9.90;99.90;;;;;;4962834;28;20055;-86
2021/12/28 12:39:53;;;;;;;0.20;0.10;;;9.90;99.90;;;;;;4972021;28;20027;-86
2021/12/28 12:42:23;;;;;;;0.00;0.00;;;9.80;99.90;;;;;;4985261;28;20058;-85
2021/12/28 12:44:54;;;;;;;0.10;0.10;;;9.80;99.90;;;;;;4985574;28;20041;-85
2021/12/28 12:47:22;;;;;;;0.33;0.10;;;9.80;99.90;;;;;;4966662;28;20034;-86
2021/12/28 12:50:06;;;;;;;0.20;0.10;;;9.90;99.90;;;;;;4985450;28;20066;-87
2021/12/28 12:52:32;;;;;;;0.87;0.07;;;9.90;99.90;;;;;;4989330;28;20019;-87
2021/12/28 12:55:04;;;;;;;0.10;0.10;;;9.90;99.90;;;;;;4974249;28;20033;-86
2021/12/28 12:58:20;;;;;;;0.20;0.10;;;9.90;99.90;;;;;;5010048;23;20139;-89
2021/12/28 13:01:36;;;;;;;0.30;0.20;;;10.00;99.90;;;;;;4939329;28;20030;-90
2021/12/28 13:04:58;;;;;;;;;;;;;;;;;;;;;
2021/12/28 13:16:46;;;;;;;0.00;0.00;;;10.30;99.90;;;;;;4892053;29;20045;-90
2021/12/28 13:19:29;;;;;;;0.23;0.10;;;10.40;99.90;;;;;;4914200;29;20062;-90
2021/12/28 13:22:27;;;;;;;0.07;0.00;;;10.30;99.90;;;;;;4931230;29;20031;-89
2021/12/28 13:28:54;;;;;;;;;;;;;;;;;;;;;
2021/12/28 13:31:50;;;;;;;;;;;;;;;;;;;;;
2021/12/28 13:34:48;;;;;;;0.20;0.10;;;10.40;99.90;;;;;;4956534;28;20037;-89
2021/12/28 13:37:42;;;;;;;0.63;0.10;;;10.40;99.90;;;;;;4944889;28;20044;-90
2021/12/28 13:40:41;;;;;;;2.00;0.20;;;10.50;99.90;;;;;;4967996;28;20038;-90
2021/12/28 13:43:43;;;;;;;0.47;0.10;;;10.50;99.90;;;;;;4965967;28;20051;-90